createdAt,value
2016-08-29T00:00:38.384Z,1027.55
2016-08-29T00:01:38.377Z,1027.59
2016-08-29T00:02:38.378Z,1027.65
2016-08-29T00:03:38.378Z,1027.66
2016-08-29T00:04:38.383Z,1027.67
2016-08-29T00:05:38.378Z,1027.71
2016-08-29T00:06:38.377Z,1027.69
2016-08-29T00:07:38.378Z,1027.71
2016-08-29T00:08:38.378Z,1027.7
2016-08-29T00:09:38.384Z,1027.78
2016-08-29T00:10:38.377Z,1027.79
2016-08-29T00:11:38.378Z,1027.78
2016-08-29T00:12:38.378Z,1027.79
2016-08-29T00:13:38.378Z,1027.74
2016-08-29T00:14:38.383Z,1027.76
2016-08-29T00:15:38.378Z,1027.81
2016-08-29T00:16:38.377Z,1027.8
2016-08-29T00:17:38.377Z,1027.86
2016-08-29T00:18:38.383Z,1027.88
2016-08-29T00:19:38.377Z,1027.82
2016-08-29T00:20:38.390Z,1027.86
2016-08-29T00:21:38.383Z,1027.82
2016-08-29T00:22:38.383Z,1027.85
2016-08-29T00:23:38.377Z,1027.9
2016-08-29T00:24:38.377Z,1027.92
2016-08-29T00:25:38.382Z,1027.87
2016-08-29T00:26:38.383Z,1027.94
2016-08-29T00:27:38.377Z,1027.95
2016-08-29T00:28:38.376Z,1028.05
2016-08-29T00:29:38.375Z,1028.13
2016-08-29T00:30:38.375Z,1028.05
2016-08-29T00:31:38.376Z,1028.13
2016-08-29T00:32:38.826Z,1028.15
2016-08-29T00:33:38.387Z,1028.13
2016-08-29T00:34:38.925Z,1028.11
2016-08-29T00:35:38.881Z,1028.12
2016-08-29T00:36:38.374Z,1028.12
2016-08-29T00:37:39.539Z,1028.15
2016-08-29T00:38:39.118Z,1028.17
2016-08-29T00:39:38.381Z,1028.1
2016-08-29T00:40:38.763Z,1028.05
2016-08-29T00:41:38.646Z,1028.08
2016-08-29T00:42:38.725Z,1028
2016-08-29T00:43:38.597Z,1028
2016-08-29T00:44:38.623Z,1027.98
2016-08-29T00:45:38.373Z,1028.02
2016-08-29T00:46:38.375Z,1027.95
2016-08-29T00:47:38.374Z,1027.96
2016-08-29T00:48:39.015Z,1027.96
2016-08-29T00:49:38.383Z,1027.95
2016-08-29T00:50:38.375Z,1027.93
2016-08-29T00:51:38.378Z,1027.94
2016-08-29T00:52:38.372Z,1027.9
2016-08-29T00:53:38.382Z,1027.99
2016-08-29T00:54:38.371Z,1028.04
2016-08-29T00:55:38.377Z,1028.04
2016-08-29T00:56:38.373Z,1028.06
2016-08-29T00:57:38.370Z,1028.09
2016-08-29T00:58:38.372Z,1028.08
2016-08-29T00:59:38.376Z,1028.07
2016-08-29T01:00:38.383Z,1028.05
2016-08-29T01:01:38.376Z,1028.1
2016-08-29T01:02:38.369Z,1028.1
2016-08-29T01:03:38.375Z,1028.14
2016-08-29T01:04:38.369Z,1028.04
2016-08-29T01:05:38.370Z,1028.04
2016-08-29T01:06:38.367Z,1028.11
2016-08-29T01:07:38.375Z,1028.09
2016-08-29T01:08:38.369Z,1028.12
2016-08-29T01:09:38.375Z,1028.14
2016-08-29T01:10:38.819Z,1028.14
2016-08-29T01:11:38.373Z,1028.11
2016-08-29T01:12:38.366Z,1028.09
2016-08-29T01:13:38.366Z,1028.07
2016-08-29T01:14:38.366Z,1028.09
2016-08-29T01:15:38.372Z,1028.14
2016-08-29T01:16:38.372Z,1028.16
2016-08-29T01:17:38.371Z,1028.16
2016-08-29T01:18:38.366Z,1028.15
2016-08-29T01:19:38.367Z,1028.18
2016-08-29T01:20:38.364Z,1028.2
2016-08-29T01:21:38.363Z,1028.22
2016-08-29T01:22:38.370Z,1028.29
2016-08-29T01:23:38.364Z,1028.29
2016-08-29T01:24:38.368Z,1028.34
2016-08-29T01:25:38.362Z,1028.37
2016-08-29T01:26:38.362Z,1028.29
2016-08-29T01:27:38.365Z,1028.34
2016-08-29T01:28:38.367Z,1028.32
2016-08-29T01:29:38.362Z,1028.33
2016-08-29T01:30:38.362Z,1028.35
2016-08-29T01:31:38.360Z,1028.4
2016-08-29T01:32:38.366Z,1028.38
2016-08-29T01:33:38.366Z,1028.39
2016-08-29T01:34:38.361Z,1028.42
2016-08-29T01:35:38.361Z,1028.38
2016-08-29T01:36:38.364Z,1028.38
2016-08-29T01:37:38.358Z,1028.33
2016-08-29T01:38:38.363Z,1028.36
2016-08-29T01:39:38.359Z,1028.36
2016-08-29T01:40:38.362Z,1028.35
2016-08-29T01:41:38.357Z,1028.32
2016-08-29T01:42:38.355Z,1028.33
2016-08-29T01:43:38.355Z,1028.27
2016-08-29T01:44:38.356Z,1028.25
2016-08-29T01:45:38.355Z,1028.21
2016-08-29T01:46:38.358Z,1028.17
2016-08-29T01:47:38.361Z,1028.19
2016-08-29T01:48:38.361Z,1028.18
2016-08-29T01:49:38.360Z,1028.18
2016-08-29T01:50:38.759Z,1028.16
2016-08-29T01:51:38.359Z,1028.14
2016-08-29T01:52:39.165Z,1028.11
2016-08-29T01:53:38.350Z,1028.11
2016-08-29T01:54:38.351Z,1028.05
2016-08-29T01:55:38.350Z,1028.07
2016-08-29T01:56:38.355Z,1028.09
2016-08-29T01:57:39.351Z,1028.07
2016-08-29T01:58:38.348Z,1028.09
2016-08-29T01:59:38.352Z,1028.08
2016-08-29T02:00:39.499Z,1028.12
2016-08-29T02:01:38.353Z,1028.12
2016-08-29T02:02:38.949Z,1028.13
2016-08-29T02:03:38.346Z,1028.17
2016-08-29T02:04:40.140Z,1028.21
2016-08-29T02:05:38.352Z,1028.19
2016-08-29T02:06:38.348Z,1028.17
2016-08-29T02:07:38.352Z,1028.2
2016-08-29T02:08:38.345Z,1028.21
2016-08-29T02:09:38.979Z,1028.22
2016-08-29T02:10:38.347Z,1028.22
2016-08-29T02:11:38.343Z,1028.22
2016-08-29T02:12:38.346Z,1028.25
2016-08-29T02:13:38.350Z,1028.21
2016-08-29T02:14:38.343Z,1028.21
2016-08-29T02:15:38.343Z,1028.21
2016-08-29T02:16:38.342Z,1028.16
2016-08-29T02:17:38.343Z,1028.15
2016-08-29T02:18:38.343Z,1028.13
2016-08-29T02:19:38.342Z,1028.09
2016-08-29T02:20:38.347Z,1028.04
2016-08-29T02:21:38.347Z,1028.01
2016-08-29T02:22:38.341Z,1028.01
2016-08-29T02:23:38.346Z,1028.1
2016-08-29T02:24:38.343Z,1028.14
2016-08-29T02:25:38.341Z,1028.13
2016-08-29T02:26:38.340Z,1028.17
2016-08-29T02:27:38.340Z,1028.16
2016-08-29T02:28:38.342Z,1028.23
2016-08-29T02:29:38.339Z,1028.26
2016-08-29T02:30:38.345Z,1028.22
2016-08-29T02:31:38.340Z,1028.15
2016-08-29T02:32:38.340Z,1028.16
2016-08-29T02:33:38.338Z,1028.13
2016-08-29T02:34:38.344Z,1028.15
2016-08-29T02:35:38.339Z,1028.13
2016-08-29T02:36:38.345Z,1028.14
2016-08-29T02:37:38.340Z,1028.19
2016-08-29T02:38:38.343Z,1028.18
2016-08-29T02:39:38.339Z,1028.19
2016-08-29T02:40:38.337Z,1028.21
2016-08-29T02:41:38.337Z,1028.21
2016-08-29T02:42:38.342Z,1028.24
2016-08-29T02:43:38.337Z,1028.22
2016-08-29T02:44:38.341Z,1028.24
2016-08-29T02:45:38.337Z,1028.2
2016-08-29T02:46:38.342Z,1028.27
2016-08-29T02:47:38.336Z,1028.26
2016-08-29T02:48:38.336Z,1028.31
2016-08-29T02:49:38.336Z,1028.32
2016-08-29T02:50:38.341Z,1028.26
2016-08-29T02:51:38.336Z,1028.24
2016-08-29T02:52:38.340Z,1028.17
2016-08-29T02:53:38.336Z,1028.15
2016-08-29T02:54:38.334Z,1028.21
2016-08-29T02:55:38.334Z,1028.22
2016-08-29T02:56:38.333Z,1028.26
2016-08-29T02:57:38.335Z,1028.28
2016-08-29T02:58:38.333Z,1028.34
2016-08-29T02:59:38.333Z,1028.41
2016-08-29T03:00:38.339Z,1028.42
2016-08-29T03:01:38.333Z,1028.38
2016-08-29T03:02:38.332Z,1028.38
2016-08-29T03:03:38.337Z,1028.37
2016-08-29T03:04:38.338Z,1028.42
2016-08-29T03:05:38.338Z,1028.41
2016-08-29T03:06:38.330Z,1028.45
2016-08-29T03:07:38.337Z,1028.49
2016-08-29T03:08:38.333Z,1028.49
2016-08-29T03:09:38.331Z,1028.51
2016-08-29T03:10:39.983Z,1028.49
2016-08-29T03:11:38.336Z,1028.5
2016-08-29T03:12:38.335Z,1028.55
2016-08-29T03:13:38.682Z,1028.57
2016-08-29T03:14:39.539Z,1028.59
2016-08-29T03:15:38.327Z,1028.57
2016-08-29T03:16:38.327Z,1028.57
2016-08-29T03:17:38.333Z,1028.56
2016-08-29T03:18:39.227Z,1028.57
2016-08-29T03:19:38.982Z,1028.53
2016-08-29T03:20:38.326Z,1028.49
2016-08-29T03:21:38.331Z,1028.5
2016-08-29T03:22:38.324Z,1028.53
2016-08-29T03:23:38.324Z,1028.53
2016-08-29T03:24:39.726Z,1028.51
2016-08-29T03:25:38.971Z,1028.53
2016-08-29T03:26:38.329Z,1028.5
2016-08-29T03:27:38.323Z,1028.57
2016-08-29T03:28:38.321Z,1028.52
2016-08-29T03:29:38.440Z,1028.53
2016-08-29T03:30:38.327Z,1028.52
2016-08-29T03:31:38.320Z,1028.55
2016-08-29T03:32:38.319Z,1028.51
2016-08-29T03:33:38.331Z,1028.55
2016-08-29T03:34:38.324Z,1028.52
2016-08-29T03:35:38.316Z,1028.53
2016-08-29T03:36:38.315Z,1028.46
2016-08-29T03:37:38.315Z,1028.43
2016-08-29T03:38:38.315Z,1028.39
2016-08-29T03:39:38.315Z,1028.43
2016-08-29T03:40:38.313Z,1028.44
2016-08-29T03:41:38.314Z,1028.47
2016-08-29T03:42:38.313Z,1028.45
2016-08-29T03:43:38.311Z,1028.46
2016-08-29T03:44:38.317Z,1028.51
2016-08-29T03:45:38.311Z,1028.51
2016-08-29T03:46:38.315Z,1028.5
2016-08-29T03:47:38.309Z,1028.57
2016-08-29T03:48:38.313Z,1028.57
2016-08-29T03:49:38.308Z,1028.57
2016-08-29T03:50:38.313Z,1028.53
2016-08-29T03:51:38.313Z,1028.53
2016-08-29T03:52:38.307Z,1028.51
2016-08-29T03:53:38.305Z,1028.55
2016-08-29T03:54:38.303Z,1028.52
2016-08-29T03:55:38.310Z,1028.5
2016-08-29T03:56:38.304Z,1028.47
2016-08-29T03:57:38.307Z,1028.44
2016-08-29T03:58:38.302Z,1028.44
2016-08-29T03:59:38.301Z,1028.44
2016-08-29T04:00:38.303Z,1028.4
2016-08-29T04:01:38.299Z,1028.39
2016-08-29T04:02:38.300Z,1028.33
2016-08-29T04:03:38.308Z,1028.38
2016-08-29T04:04:38.299Z,1028.39
2016-08-29T04:05:38.296Z,1028.44
2016-08-29T04:06:38.302Z,1028.46
2016-08-29T04:07:38.296Z,1028.43
2016-08-29T04:08:38.294Z,1028.4
2016-08-29T04:09:38.301Z,1028.41
2016-08-29T04:10:38.294Z,1028.42
2016-08-29T04:11:38.292Z,1028.4
2016-08-29T04:12:38.293Z,1028.45
2016-08-29T04:13:38.290Z,1028.45
2016-08-29T04:14:38.292Z,1028.37
2016-08-29T04:15:38.290Z,1028.39
2016-08-29T04:16:38.290Z,1028.4
2016-08-29T04:17:38.288Z,1028.39
2016-08-29T04:18:38.294Z,1028.38
2016-08-29T04:19:38.287Z,1028.41
2016-08-29T04:20:38.286Z,1028.43
2016-08-29T04:21:38.285Z,1028.44
2016-08-29T04:22:38.291Z,1028.47
2016-08-29T04:23:38.295Z,1028.42
2016-08-29T04:24:38.285Z,1028.44
2016-08-29T04:25:38.298Z,1028.37
2016-08-29T04:26:38.285Z,1028.37
2016-08-29T04:27:38.286Z,1028.4
2016-08-29T04:28:38.781Z,1028.37
2016-08-29T04:29:38.281Z,1028.35
2016-08-29T04:30:38.335Z,1028.34
2016-08-29T04:32:38.778Z,1028.35
2016-08-29T04:33:39.497Z,1028.31
2016-08-29T04:34:39.159Z,1028.26
2016-08-29T04:35:38.481Z,1028.25
2016-08-29T04:37:38.869Z,1028.25
2016-08-29T04:38:38.275Z,1028.21
2016-08-29T04:39:38.274Z,1028.18
2016-08-29T04:40:38.273Z,1028.2
2016-08-29T04:41:39.920Z,1028.18
2016-08-29T04:42:38.273Z,1028.17
2016-08-29T04:43:38.279Z,1028.25
2016-08-29T04:44:39.019Z,1028.27
2016-08-29T04:45:38.277Z,1028.24
2016-08-29T04:46:38.271Z,1028.27
2016-08-29T04:47:38.277Z,1028.24
2016-08-29T04:48:38.269Z,1028.18
2016-08-29T04:49:38.269Z,1028.16
2016-08-29T04:50:38.270Z,1028.11
2016-08-29T04:51:38.276Z,1028.11
2016-08-29T04:52:38.269Z,1028.15
2016-08-29T04:53:38.274Z,1028.17
2016-08-29T04:54:38.270Z,1028.17
2016-08-29T04:55:38.268Z,1028.08
2016-08-29T04:56:38.269Z,1028.06
2016-08-29T04:57:38.273Z,1027.98
2016-08-29T04:58:38.275Z,1028
2016-08-29T04:59:38.268Z,1028
2016-08-29T05:00:38.268Z,1028.03
2016-08-29T05:01:38.272Z,1027.98
2016-08-29T05:02:38.266Z,1028.05
2016-08-29T05:03:38.271Z,1028.03
2016-08-29T05:04:38.266Z,1028.11
2016-08-29T05:05:38.265Z,1028.07
2016-08-29T05:06:38.265Z,1028.08
2016-08-29T05:07:38.270Z,1028.05
2016-08-29T05:08:38.266Z,1028.08
2016-08-29T05:09:38.271Z,1028.06
2016-08-29T05:10:38.264Z,1028.04
2016-08-29T05:11:38.269Z,1028.02
2016-08-29T05:12:38.267Z,1028.01
2016-08-29T05:13:38.264Z,1028.02
2016-08-29T05:14:38.266Z,1028.05
2016-08-29T05:15:38.270Z,1028.04
2016-08-29T05:16:38.270Z,1028.05
2016-08-29T05:17:38.266Z,1028.01
2016-08-29T05:18:38.265Z,1028.06
2016-08-29T05:19:38.264Z,1028.04
2016-08-29T05:20:38.264Z,1028.01
2016-08-29T05:21:38.264Z,1027.98
2016-08-29T05:22:38.264Z,1027.97
2016-08-29T05:23:38.270Z,1027.94
2016-08-29T05:24:38.266Z,1027.89
2016-08-29T05:25:38.263Z,1027.87
2016-08-29T05:26:38.266Z,1027.81
2016-08-29T05:27:38.272Z,1027.79
2016-08-29T05:28:38.265Z,1027.77
2016-08-29T05:29:38.264Z,1027.72
2016-08-29T05:30:38.265Z,1027.75
2016-08-29T05:31:38.266Z,1027.72
2016-08-29T05:32:38.264Z,1027.65
2016-08-29T05:33:38.265Z,1027.6
2016-08-29T05:34:38.267Z,1027.56
2016-08-29T05:35:38.268Z,1027.49
2016-08-29T05:36:38.273Z,1027.38
2016-08-29T05:37:38.268Z,1027.04
2016-08-29T05:38:38.269Z,1026.65
2016-08-29T05:39:38.274Z,1026.77
2016-08-29T05:40:38.276Z,1026.63
2016-08-29T05:41:38.271Z,1026.41
2016-08-29T05:42:38.272Z,1026.09
2016-08-29T05:43:38.274Z,1026.01
2016-08-29T05:44:38.275Z,1026
2016-08-29T05:45:38.277Z,1025.74
2016-08-29T05:46:38.282Z,1025.72
2016-08-29T05:47:38.280Z,1025.83
2016-08-29T05:48:38.291Z,1025.9
2016-08-29T05:49:39.628Z,1026.02
2016-08-29T05:50:38.295Z,1026.06
2016-08-29T05:51:39.412Z,1026.17
2016-08-29T05:52:39.431Z,1026.01
2016-08-29T05:53:38.304Z,1026.01
2016-08-29T05:55:38.307Z,1025.71
2016-08-29T05:56:38.303Z,1025.68
2016-08-29T05:57:38.309Z,1025.76
2016-08-29T05:58:38.311Z,1025.7
2016-08-29T05:59:39.894Z,1025.61
2016-08-29T06:00:38.316Z,1025.58
2016-08-29T06:01:38.560Z,1025.42
2016-08-29T06:02:38.322Z,1025.45
2016-08-29T06:03:39.083Z,1025.4
2016-08-29T06:04:38.333Z,1025.22
2016-08-29T06:05:38.336Z,1025
2016-08-29T06:06:38.343Z,1024.53
2016-08-29T06:07:38.342Z,1024.6
2016-08-29T06:08:38.354Z,1024.72
2016-08-29T06:09:38.360Z,1025.03
2016-08-29T06:10:38.362Z,1024.57
2016-08-29T06:11:38.361Z,1024.55
2016-08-29T06:12:38.366Z,1024.36
2016-08-29T06:13:38.372Z,1024.1
2016-08-29T06:14:38.377Z,1023.89
2016-08-29T06:15:38.387Z,1023.69
2016-08-29T06:16:38.386Z,1023.43
2016-08-29T06:17:38.405Z,1023.13
2016-08-29T06:18:38.406Z,1022.89
2016-08-29T06:19:38.412Z,1022.67
2016-08-29T06:20:38.412Z,1022.5
2016-08-29T06:21:38.419Z,1022.37
2016-08-29T06:22:38.432Z,1022.25
2016-08-29T06:23:38.438Z,1022.12
2016-08-29T06:24:38.439Z,1022.05
2016-08-29T06:25:38.458Z,1021.93
2016-08-29T06:26:38.459Z,1021.84
2016-08-29T06:27:38.463Z,1021.75
2016-08-29T06:28:38.477Z,1021.66
2016-08-29T06:29:38.480Z,1021.55
2016-08-29T06:30:38.494Z,1021.53
2016-08-29T06:31:38.500Z,1021.49
2016-08-29T06:32:38.513Z,1021.43
2016-08-29T06:33:38.517Z,1021.46
2016-08-29T06:34:38.527Z,1021.3
2016-08-29T06:35:38.535Z,1021.05
2016-08-29T06:36:38.550Z,1021.45
2016-08-29T06:37:38.602Z,1021.81
2016-08-29T06:38:38.565Z,1021.81
2016-08-29T06:39:38.579Z,1021.44
2016-08-29T06:40:38.590Z,1021.48
2016-08-29T06:41:38.594Z,1021.39
2016-08-29T06:42:38.610Z,1021.31
2016-08-29T06:43:38.615Z,1021.26
2016-08-29T06:44:38.629Z,1021.24
2016-08-29T06:45:38.639Z,1021.39
2016-08-29T06:46:38.646Z,1021.42
2016-08-29T06:47:38.658Z,1021.46
2016-08-29T06:48:38.674Z,1021.49
2016-08-29T06:49:38.679Z,1021.37
2016-08-29T06:50:38.690Z,1021.41
2016-08-29T06:51:38.703Z,1020.68
2016-08-29T06:52:38.715Z,1021.06
2016-08-29T06:53:38.729Z,1021.55
2016-08-29T06:54:38.734Z,1021.93
2016-08-29T06:55:38.750Z,1022.49
2016-08-29T06:56:38.757Z,1021.67
2016-08-29T06:57:38.767Z,1021.93
2016-08-29T06:58:38.780Z,1022.18
2016-08-29T06:59:38.796Z,1022.92
2016-08-29T07:00:38.800Z,1022.61
2016-08-29T07:01:38.818Z,1022.41
2016-08-29T07:02:38.824Z,1022.2
2016-08-29T07:03:38.835Z,1022.13
2016-08-29T07:04:38.845Z,1021.95
2016-08-29T07:05:38.855Z,1021.8
2016-08-29T07:06:38.867Z,1021.63
2016-08-29T07:07:39.024Z,1021.56
2016-08-29T07:08:38.941Z,1021.46
2016-08-29T07:09:40.102Z,1021.33
2016-08-29T07:10:38.914Z,1021.23
2016-08-29T07:11:38.922Z,1021.07
2016-08-29T07:12:38.934Z,1020.97
2016-08-29T07:13:38.948Z,1020.88
2016-08-29T07:14:38.958Z,1020.59
2016-08-29T07:15:38.970Z,1021.09
2016-08-29T07:16:38.986Z,1021.54
2016-08-29T07:18:39.742Z,1021.72
2016-08-29T07:19:40.376Z,1021.45
2016-08-29T07:20:39.034Z,1021.15
2016-08-29T07:21:39.044Z,1021.11
2016-08-29T07:22:39.051Z,1021.01
2016-08-29T07:23:39.066Z,1021.01
2016-08-29T07:24:39.073Z,1022.31
2016-08-29T07:25:39.084Z,1022.64
2016-08-29T07:26:39.094Z,1023.17
2016-08-29T07:27:39.112Z,1022.88
2016-08-29T07:28:39.117Z,1022.71
2016-08-29T07:29:39.136Z,1021.83
2016-08-29T07:30:39.145Z,1022.45
2016-08-29T07:31:39.151Z,1022.62
2016-08-29T07:32:39.161Z,1023.33
2016-08-29T07:33:39.178Z,1023.93
2016-08-29T07:34:39.182Z,1023.18
2016-08-29T07:35:39.195Z,1022.84
2016-08-29T07:36:39.204Z,1023.5
2016-08-29T07:37:39.219Z,1024.04
2016-08-29T07:38:39.224Z,1024.58
2016-08-29T07:39:39.241Z,1024.54
2016-08-29T07:40:39.245Z,1024.33
2016-08-29T07:41:39.254Z,1024.66
2016-08-29T07:42:39.266Z,1024.12
2016-08-29T07:43:39.274Z,1024.57
2016-08-29T07:44:39.281Z,1024.91
2016-08-29T07:45:39.295Z,1025.27
2016-08-29T07:46:39.302Z,1024.82
2016-08-29T07:47:39.313Z,1025.13
2016-08-29T07:48:39.320Z,1025.29
2016-08-29T07:49:39.336Z,1025.39
2016-08-29T07:50:39.337Z,1025.44
2016-08-29T07:51:39.347Z,1025.61
2016-08-29T07:52:39.357Z,1025.51
2016-08-29T07:53:39.370Z,1025.62
2016-08-29T07:54:39.372Z,1025.69
2016-08-29T07:55:39.386Z,1025.61
2016-08-29T07:56:39.388Z,1025.69
2016-08-29T07:57:39.402Z,1025.35
2016-08-29T07:58:39.404Z,1025.31
2016-08-29T07:59:39.416Z,1025.62
2016-08-29T08:00:39.427Z,1025.93
2016-08-29T08:01:39.430Z,1026.17
2016-08-29T08:02:39.440Z,1026.39
2016-08-29T08:03:39.443Z,1026.53
2016-08-29T08:04:39.451Z,1026.67
2016-08-29T08:05:39.457Z,1026.67
2016-08-29T08:06:39.464Z,1026.8
2016-08-29T08:07:39.472Z,1027.11
2016-08-29T08:08:39.481Z,1026.25
2016-08-29T08:09:39.485Z,1026.41
2016-08-29T08:10:39.494Z,1026.46
2016-08-29T08:11:39.506Z,1026.67
2016-08-29T08:12:39.507Z,1026.75
2016-08-29T08:13:39.519Z,1026.82
2016-08-29T08:14:39.519Z,1026.98
2016-08-29T08:15:39.533Z,1027.03
2016-08-29T08:16:39.533Z,1027.14
2016-08-29T08:17:39.544Z,1027.2
2016-08-29T08:18:39.552Z,1027.24
2016-08-29T08:19:39.551Z,1027.41
2016-08-29T08:20:39.558Z,1027.49
2016-08-29T08:21:39.565Z,1027.57
2016-08-29T08:22:39.569Z,1027.66
2016-08-29T08:23:40.027Z,1027.73
2016-08-29T08:24:39.579Z,1027.75
2016-08-29T08:25:40.008Z,1027.78
2016-08-29T08:26:39.592Z,1027.82
2016-08-29T08:27:39.603Z,1027.87
2016-08-29T08:28:39.607Z,1027.89
2016-08-29T08:29:39.609Z,1027.9
2016-08-29T08:30:39.618Z,1027.86
2016-08-29T08:31:39.616Z,1027.89
2016-08-29T08:32:39.628Z,1027.95
2016-08-29T08:33:40.140Z,1027.98
2016-08-29T08:34:39.632Z,1027.84
2016-08-29T08:35:39.635Z,1027.89
2016-08-29T08:37:39.646Z,1027.42
2016-08-29T08:38:39.928Z,1027.26
2016-08-29T08:39:39.654Z,1027.07
2016-08-29T08:40:40.223Z,1027.02
2016-08-29T08:41:39.666Z,1027.1
2016-08-29T08:42:39.670Z,1027.21
2016-08-29T08:43:39.681Z,1027.24
2016-08-29T08:44:39.682Z,1027.36
2016-08-29T08:45:39.687Z,1027.49
2016-08-29T08:46:39.695Z,1027.64
2016-08-29T08:47:39.717Z,1027.67
2016-08-29T08:48:39.706Z,1027.81
2016-08-29T08:49:39.704Z,1027.86
2016-08-29T08:50:39.714Z,1027.91
2016-08-29T08:51:39.720Z,1027.9
2016-08-29T08:52:39.718Z,1027.93
2016-08-29T08:53:39.722Z,1027.93
2016-08-29T08:54:39.728Z,1027.93
2016-08-29T08:55:39.736Z,1027.93
2016-08-29T08:56:39.736Z,1027.89
2016-08-29T08:57:39.740Z,1027.83
2016-08-29T08:58:39.744Z,1027.76
2016-08-29T08:59:39.758Z,1027.74
2016-08-29T09:00:39.814Z,1027.65
2016-08-29T09:01:39.757Z,1027.71
2016-08-29T09:02:39.770Z,1027.71
2016-08-29T09:03:39.767Z,1027.63
2016-08-29T09:04:39.776Z,1027.6
2016-08-29T09:05:39.777Z,1027.53
2016-08-29T09:06:39.781Z,1027.4
2016-08-29T09:07:39.786Z,1027.29
2016-08-29T09:08:39.788Z,1027.3
2016-08-29T09:09:39.794Z,1027.34
2016-08-29T09:10:39.799Z,1027.25
2016-08-29T09:11:39.802Z,1027.11
2016-08-29T09:12:39.817Z,1027.05
2016-08-29T09:13:39.814Z,1027.13
2016-08-29T09:14:39.816Z,1027.21
2016-08-29T09:15:39.820Z,1027.39
2016-08-29T09:16:39.827Z,1027.46
2016-08-29T09:17:39.831Z,1027.55
2016-08-29T09:18:39.836Z,1027.6
2016-08-29T09:19:39.847Z,1027.6
2016-08-29T09:20:39.851Z,1027.64
2016-08-29T09:21:39.850Z,1027.59
2016-08-29T09:22:39.855Z,1027.52
2016-08-29T09:23:39.860Z,1027.5
2016-08-29T09:24:39.864Z,1027.49
2016-08-29T09:25:39.870Z,1027.34
2016-08-29T09:26:39.875Z,1027.07
2016-08-29T09:27:39.881Z,1026.91
2016-08-29T09:28:39.891Z,1026.84
2016-08-29T09:29:39.890Z,1026.75
2016-08-29T09:30:39.900Z,1026.83
2016-08-29T09:31:39.898Z,1026.85
2016-08-29T09:32:39.906Z,1026.87
2016-08-29T09:33:39.909Z,1026.93
2016-08-29T09:34:39.915Z,1026.94
2016-08-29T09:35:39.925Z,1026.97
2016-08-29T09:36:39.931Z,1026.96
2016-08-29T09:37:39.929Z,1026.86
2016-08-29T09:38:39.941Z,1026.74
2016-08-29T09:39:41.040Z,1026.68
2016-08-29T09:40:40.045Z,1026.51
2016-08-29T09:41:39.950Z,1026.47
2016-08-29T09:42:39.961Z,1026.39
2016-08-29T09:43:39.961Z,1026.33
2016-08-29T09:44:39.968Z,1026.23
2016-08-29T09:45:39.971Z,1026.05
2016-08-29T09:46:39.984Z,1025.99
2016-08-29T09:47:39.984Z,1025.9
2016-08-29T09:48:41.640Z,1025.81
2016-08-29T09:49:39.996Z,1025.89
2016-08-29T09:50:40.051Z,1025.82
2016-08-29T09:51:40.012Z,1025.73
2016-08-29T09:52:40.168Z,1025.58
2016-08-29T09:53:40.019Z,1025.62
2016-08-29T09:54:40.026Z,1025.63
2016-08-29T09:55:40.032Z,1025.65
2016-08-29T09:56:40.040Z,1025.6
2016-08-29T09:57:40.061Z,1025.45
2016-08-29T09:58:40.051Z,1025.51
2016-08-29T09:59:40.063Z,1025.49
2016-08-29T10:00:40.066Z,1025.4
2016-08-29T10:01:40.071Z,1025.53
2016-08-29T10:02:40.078Z,1025.63
2016-08-29T10:03:40.091Z,1025.82
2016-08-29T10:04:40.092Z,1025.97
2016-08-29T10:05:40.097Z,1026.04
2016-08-29T10:06:40.103Z,1026.03
2016-08-29T10:07:40.110Z,1026.09
2016-08-29T10:08:40.119Z,1026.18
2016-08-29T10:09:40.126Z,1026.21
2016-08-29T10:10:40.136Z,1026.08
2016-08-29T10:11:40.139Z,1026.05
2016-08-29T10:12:40.144Z,1025.93
2016-08-29T10:13:40.151Z,1025.98
2016-08-29T10:14:40.158Z,1026
2016-08-29T10:15:40.164Z,1025.94
2016-08-29T10:16:40.171Z,1025.8
2016-08-29T10:17:40.177Z,1025.71
2016-08-29T10:18:40.197Z,1025.71
2016-08-29T10:19:40.191Z,1025.78
2016-08-29T10:20:40.198Z,1025.73
2016-08-29T10:21:40.210Z,1025.69
2016-08-29T10:22:40.217Z,1025.62
2016-08-29T10:23:40.225Z,1025.62
2016-08-29T10:24:40.231Z,1025.6
2016-08-29T10:25:40.231Z,1025.59
2016-08-29T10:26:40.243Z,1025.6
2016-08-29T10:27:40.246Z,1025.7
2016-08-29T10:28:40.258Z,1025.84
2016-08-29T10:29:40.268Z,1025.99
2016-08-29T10:30:40.268Z,1026.12
2016-08-29T10:31:40.274Z,1026.29
2016-08-29T10:32:40.286Z,1026.39
2016-08-29T10:33:40.287Z,1026.55
2016-08-29T10:34:40.295Z,1026.7
2016-08-29T10:35:40.302Z,1026.74
2016-08-29T10:36:40.307Z,1026.74
2016-08-29T10:37:40.321Z,1026.62
2016-08-29T10:38:40.322Z,1026.53
2016-08-29T10:39:40.327Z,1026.48
2016-08-29T10:40:40.435Z,1026.53
2016-08-29T10:41:40.346Z,1026.46
2016-08-29T10:42:40.350Z,1026.49
2016-08-29T10:43:40.360Z,1026.46
2016-08-29T10:44:40.360Z,1026.5
2016-08-29T10:45:40.374Z,1026.61
2016-08-29T10:46:40.374Z,1026.58
2016-08-29T10:47:40.379Z,1026.67
2016-08-29T10:48:40.385Z,1026.73
2016-08-29T10:49:40.398Z,1026.78
2016-08-29T10:50:40.398Z,1026.83
2016-08-29T10:51:40.405Z,1026.86
2016-08-29T10:52:40.411Z,1026.89
2016-08-29T10:53:40.418Z,1026.78
2016-08-29T10:54:40.422Z,1026.71
2016-08-29T10:55:40.429Z,1026.72
2016-08-29T10:56:40.436Z,1026.62
2016-08-29T10:57:40.444Z,1026.68
2016-08-29T10:58:40.449Z,1026.7
2016-08-29T10:59:40.456Z,1026.66
2016-08-29T11:00:40.468Z,1026.68
2016-08-29T11:01:40.472Z,1026.67
2016-08-29T11:02:40.673Z,1026.77
2016-08-29T11:03:40.479Z,1026.81
2016-08-29T11:04:41.250Z,1027
2016-08-29T11:05:40.497Z,1027.01
2016-08-29T11:06:40.502Z,1027.13
2016-08-29T11:07:41.091Z,1027.21
2016-08-29T11:08:40.514Z,1027.34
2016-08-29T11:09:40.516Z,1027.41
2016-08-29T11:10:40.521Z,1027.41
2016-08-29T11:11:40.526Z,1027.63
2016-08-29T11:12:40.537Z,1027.64
2016-08-29T11:13:41.258Z,1027.69
2016-08-29T11:14:40.541Z,1027.7
2016-08-29T11:15:40.553Z,1027.72
2016-08-29T11:16:40.551Z,1027.72
2016-08-29T11:17:40.569Z,1027.68
2016-08-29T11:18:40.563Z,1027.68
2016-08-29T11:19:40.567Z,1027.63
2016-08-29T11:20:40.571Z,1027.56
2016-08-29T11:21:40.577Z,1027.55
2016-08-29T11:22:40.583Z,1027.51
2016-08-29T11:23:40.588Z,1027.48
2016-08-29T11:24:40.593Z,1027.42
2016-08-29T11:25:40.597Z,1027.46
2016-08-29T11:26:40.604Z,1027.46
2016-08-29T11:27:40.615Z,1027.45
2016-08-29T11:28:40.613Z,1027.34
2016-08-29T11:29:40.618Z,1027.23
2016-08-29T11:30:40.629Z,1027.21
2016-08-29T11:31:40.633Z,1027.12
2016-08-29T11:32:40.633Z,1027.2
2016-08-29T11:33:40.639Z,1027.28
2016-08-29T11:34:40.650Z,1027.41
2016-08-29T11:35:40.651Z,1027.56
2016-08-29T11:36:40.654Z,1027.65
2016-08-29T11:37:40.661Z,1027.75
2016-08-29T11:38:40.669Z,1027.83
2016-08-29T11:39:40.670Z,1027.99
2016-08-29T11:40:40.679Z,1028.15
2016-08-29T11:41:40.679Z,1028.34
2016-08-29T11:42:40.683Z,1028.4
2016-08-29T11:43:40.689Z,1028.47
2016-08-29T11:44:40.692Z,1028.61
2016-08-29T11:45:40.703Z,1028.74
2016-08-29T11:46:40.701Z,1028.91
2016-08-29T11:47:40.707Z,1029.09
2016-08-29T11:48:40.713Z,1029.26
2016-08-29T11:49:40.721Z,1029.31
2016-08-29T11:50:40.719Z,1029.46
2016-08-29T11:51:40.724Z,1029.47
2016-08-29T11:52:40.726Z,1029.48
2016-08-29T11:53:40.731Z,1029.47
2016-08-29T11:54:40.734Z,1029.38
2016-08-29T11:55:40.737Z,1029.23
2016-08-29T11:56:40.747Z,1029.1
2016-08-29T11:57:40.746Z,1028.92
2016-08-29T11:58:40.749Z,1028.78
2016-08-29T11:59:40.753Z,1028.67
2016-08-29T12:00:40.755Z,1028.57
2016-08-29T12:01:40.759Z,1028.44
2016-08-29T12:02:41.040Z,1028.38
2016-08-29T12:03:40.765Z,1028.35
2016-08-29T12:04:40.770Z,1028.32
2016-08-29T12:05:40.774Z,1028.28
2016-08-29T12:06:40.780Z,1028.22
2016-08-29T12:07:40.780Z,1028.09
2016-08-29T12:08:40.784Z,1028.11
2016-08-29T12:09:40.796Z,1028.07
2016-08-29T12:10:40.800Z,1028.19
2016-08-29T12:11:40.802Z,1028.26
2016-08-29T12:12:40.803Z,1028.23
2016-08-29T12:13:40.812Z,1028.29